Grand Canyon National Park, AZ

2:40 PM MST on September 02, 2014 (GMT -0700)
KAZGRAND3 | Change Station
CLOSE
Current Station
Personal Weather Station
Location: Grand Canyon, AZ
Elevation: 6991 ft
Nearby Weather Stations

Elev 6991 ft 36.05 °N, 112.12 °W | Updated 1 second ago

Clear
Clear
83.2 °F
Feels Like 81 °F
N
7.0
Wind Variable Wind from SW
Gusts 8.0 mph

Today
High -- | Low -- °F
--% Chance of Precip.
Yesterday
High -- | Low -- °F
Precip. -- in
6:01 AM 6:54 PM
First Quarter, 55% visible
Pressure 30.20 in
Visibility 10.0 miles
Clouds Clear
Heat Index 81 °F
Dew Point 27 °F
Humidity 13%
Rainfall 0.00 in
Snow Depth Not available.
UV 10 out of 12
Pollen 6.90 out of 12
Air Quality Not available.
Flu Activity Not available.
METAR KGCN 022054Z 21017KT 10SM CLR 29/M02 A3020 RMK AO2 SLPNO T02891022 58012 $

More Conditions Fewer Conditions

Pressure 30.20 in
Visibility 10.0 miles
Clouds Clear
Heat Index 81 °F
Dew Point 27 °F
Humidity 13%
Rainfall 0.00 in
Snow Depth Not available.
UV 10 out of 12
Pollen 6.90 out of 12
Air Quality Not available.
Flu Activity Not available.
METAR KGCN 022054Z 21017KT 10SM CLR 29/M02 A3020 RMK AO2 SLPNO T02891022 58012 $

More Conditions Fewer Conditions

10-Day Weather Forecast

Almanac

Astronomy

Sep. 02, 2014 Rise Set
Actual Time 6:01 AM MST 6:54 PM MST
Civil Twilight 5:34 AM MST 7:20 PM MST
Nautical Twilight 5:03 AM MST 7:51 PM MST
Astronomical Twilight 4:31 AM MST 8:23 PM MST
Moon 1:35 PM MST No Moon Set
Length of Visible Light 13h 45m
Length of Day
12h 53m
Tomorrow will be 2m 13s shorter.
First Quarter, 55% of the Moon is Illuminated
Today
First Quarter
Sep 8
Full
Sep 15
Last Quarter
Sep 24
New
Oct 1
First Quarter

Today's Extremes

State Highs State Lows

Community

WunderPhotos

Upload Photos

1,749,782 photos uploaded!

Nearby

Snow Depth

Station Depth Elevation
Workman Creek 0 in 6900 ft
Beaver Head 28 in 7990 ft

Earthquake Activity

City Distance Mag. Time & Date
No recent earthquake activity has been reported nearby.
Minimum magnitude displayed is 2.5.

Coastal Water Temperatures

Place Temperature
No Stations Reporting

Nearby Weather Stations